Time;durP1;ratioP1;P1;durP2;ratioP2;P2;SDS_P1;SDS_P2;PMS_P1;PMS_P2;Temp;Humidity;BMP_temperature;BMP_pressure;BME280_temperature;BME280_humidity;BME280_pressure;Samples;Min_cycle;Max_cycle;Signal;HPM_P1;HPM_P2
2022/09/22 00:01:32;;;;;;;0.60;0.60;;;6.20;99.90;;;;;;5070195;28;20435;-68
2022/09/22 00:04:02;;;;;;;0.28;0.28;;;6.10;99.90;;;;;;5069413;28;20427;-68
2022/09/22 00:06:38;;;;;;;0.80;0.45;;;6.10;99.90;;;;;;5069533;28;20477;-68
2022/09/22 00:09:08;;;;;;;0.90;0.30;;;6.10;99.90;;;;;;5069910;28;20431;-68
2022/09/22 00:11:54;;;;;;;0.80;0.80;;;6.10;99.90;;;;;;5056916;28;20499;-68
2022/09/22 00:14:26;;;;;;;0.50;0.50;;;6.10;99.90;;;;;;5061238;28;20510;-69
2022/09/22 00:16:56;;;;;;;0.23;0.23;;;6.10;99.90;;;;;;5069811;28;20435;-68
2022/09/22 00:19:29;;;;;;;0.70;0.70;;;6.00;99.90;;;;;;5069541;28;20917;-68
2022/09/22 00:21:56;;;;;;;0.40;0.40;;;6.00;99.90;;;;;;5069777;28;20430;-68
2022/09/22 00:24:24;;;;;;;0.22;0.22;;;6.00;99.90;;;;;;5069269;28;20909;-68
2022/09/22 00:26:56;;;;;;;0.30;0.30;;;6.00;99.90;;;;;;5069649;28;20504;-68
2022/09/22 00:29:25;;;;;;;0.50;0.50;;;5.90;99.90;;;;;;5069654;28;20431;-68
2022/09/22 00:31:52;;;;;;;0.50;0.50;;;5.90;99.90;;;;;;5069678;28;21133;-68
2022/09/22 00:34:24;;;;;;;0.98;0.68;;;6.00;99.90;;;;;;5069436;28;20427;-68
2022/09/22 00:36:51;;;;;;;0.52;0.50;;;5.90;99.90;;;;;;5069771;28;20449;-68
2022/09/22 00:39:18;;;;;;;0.40;0.40;;;5.80;99.90;;;;;;5069406;28;20431;-68
2022/09/22 00:41:47;;;;;;;0.70;0.30;;;5.80;99.90;;;;;;5069605;28;20444;-68
2022/09/22 00:44:35;;;;;;;0.35;0.35;;;5.70;99.90;;;;;;5069439;28;20431;-68
2022/09/22 00:47:37;;;;;;;0.55;0.52;;;5.80;99.90;;;;;;5069724;28;20427;-68
2022/09/22 00:50:21;;;;;;;0.50;0.50;;;5.90;99.90;;;;;;5052184;28;20453;-68
2022/09/22 00:53:04;;;;;;;0.60;0.60;;;5.90;99.90;;;;;;5069559;28;20905;-68
2022/09/22 00:55:44;;;;;;;0.75;0.75;;;5.90;99.90;;;;;;5068483;28;20424;-68
2022/09/22 00:58:15;;;;;;;0.50;0.50;;;5.80;99.90;;;;;;5069061;28;20439;-68
2022/09/22 01:00:43;;;;;;;0.50;0.50;;;5.80;99.90;;;;;;5069608;28;20435;-68
2022/09/22 01:03:22;;;;;;;0.60;0.60;;;5.80;99.90;;;;;;5068837;28;20431;-68
2022/09/22 01:06:02;;;;;;;0.65;0.65;;;5.80;99.90;;;;;;5069479;28;20518;-68
2022/09/22 01:08:30;;;;;;;0.57;0.57;;;5.70;99.90;;;;;;5069105;28;20423;-68
2022/09/22 01:10:58;;;;;;;0.65;0.47;;;5.70;99.90;;;;;;5068176;28;20415;-68
2022/09/22 01:13:38;;;;;;;0.50;0.50;;;5.60;99.90;;;;;;5069033;28;20430;-68
2022/09/22 01:16:28;;;;;;;0.30;0.30;;;5.50;99.90;;;;;;5069239;28;20798;-68
2022/09/22 01:19:36;;;;;;;1.33;0.52;;;5.50;99.90;;;;;;5031193;28;20506;-68
2022/09/22 01:22:05;;;;;;;0.38;0.38;;;5.50;99.90;;;;;;5069318;28;20431;-68
2022/09/22 01:24:38;;;;;;;0.32;0.32;;;5.60;99.90;;;;;;5069005;28;20480;-68
2022/09/22 01:27:50;;;;;;;0.40;0.30;;;5.60;99.90;;;;;;5069059;28;20898;-68
2022/09/22 01:30:21;;;;;;;0.40;0.30;;;5.70;99.90;;;;;;4987589;28;20439;-68
2022/09/22 01:33:15;;;;;;;1.75;0.73;;;5.70;99.90;;;;;;4990460;28;20588;-68
2022/09/22 01:35:58;;;;;;;0.33;0.33;;;5.70;99.90;;;;;;4990630;28;20481;-68
2022/09/22 01:38:36;;;;;;;0.60;0.60;;;5.70;99.90;;;;;;4990965;28;20440;-68
2022/09/22 01:41:32;;;;;;;0.67;0.67;;;5.70;99.90;;;;;;4990296;28;20427;-69
2022/09/22 01:44:06;;;;;;;0.30;0.30;;;5.70;99.90;;;;;;4912832;29;20998;-68
2022/09/22 01:46:37;;;;;;;0.60;0.40;;;5.80;99.90;;;;;;4913422;29;20452;-68
2022/09/22 01:49:09;;;;;;;1.20;0.30;;;5.70;99.90;;;;;;4913794;29;20512;-68
2022/09/22 01:52:02;;;;;;;2.00;0.52;;;5.80;99.90;;;;;;4913461;29;20473;-68
2022/09/22 01:54:38;;;;;;;0.75;0.75;;;5.80;99.90;;;;;;4838274;29;20474;-68
2022/09/22 01:57:27;;;;;;;0.50;0.50;;;5.80;99.90;;;;;;4838702;29;20508;-68
2022/09/22 01:59:59;;;;;;;0.35;0.35;;;5.70;99.90;;;;;;4838857;29;20994;-68
2022/09/22 02:02:33;;;;;;;0.40;0.40;;;5.80;99.90;;;;;;4838637;29;20448;-68
2022/09/22 02:05:04;;;;;;;0.57;0.57;;;5.70;99.90;;;;;;4838698;29;20447;-68
2022/09/22 02:07:40;;;;;;;0.50;0.50;;;5.60;99.90;;;;;;4895906;29;20927;-68
2022/09/22 02:10:13;;;;;;;0.40;0.30;;;5.50;99.90;;;;;;4913313;29;20904;-68
2022/09/22 02:12:43;;;;;;;0.70;0.40;;;5.50;99.90;;;;;;4912906;29;20452;-68
2022/09/22 02:18:05;;;;;;;0.40;0.40;;;5.40;99.90;;;;;;4913296;29;20444;-68
2022/09/22 02:20:33;;;;;;;0.40;0.40;;;5.30;99.90;;;;;;4940039;28;20430;-68
2022/09/22 02:23:02;;;;;;;0.50;0.50;;;5.20;99.90;;;;;;4989288;28;20433;-68
2022/09/22 02:25:29;;;;;;;0.60;0.60;;;5.20;99.90;;;;;;4988706;28;20434;-68
2022/09/22 02:27:57;;;;;;;0.40;0.40;;;5.10;99.90;;;;;;4988836;28;20438;-68
2022/09/22 02:30:27;;;;;;;0.40;0.40;;;5.10;99.90;;;;;;4996368;28;21069;-68
2022/09/22 02:32:56;;;;;;;0.30;0.30;;;5.10;99.90;;;;;;5071583;28;20427;-68
2022/09/22 02:35:28;;;;;;;0.30;0.30;;;5.10;99.90;;;;;;5071661;28;20423;-68
2022/09/22 02:38:24;;;;;;;0.50;0.50;;;5.10;99.90;;;;;;5071026;28;20431;-68
2022/09/22 02:41:12;;;;;;;0.40;0.40;;;5.10;99.90;;;;;;5071084;28;20435;-68
2022/09/22 02:44:00;;;;;;;0.30;0.30;;;5.00;99.90;;;;;;5071134;28;20454;-68
2022/09/22 02:46:48;;;;;;;0.60;0.60;;;5.10;99.90;;;;;;5069925;28;20797;-68
2022/09/22 02:49:17;;;;;;;0.88;0.68;;;5.10;99.90;;;;;;5070230;28;20424;-68
2022/09/22 02:51:48;;;;;;;0.40;0.40;;;5.10;99.90;;;;;;5071325;28;20427;-68
2022/09/22 02:54:16;;;;;;;0.60;0.60;;;5.20;99.90;;;;;;5069478;28;20427;-68
2022/09/22 02:56:46;;;;;;;0.35;0.35;;;5.30;99.90;;;;;;5071158;28;20480;-68
2022/09/22 02:59:13;;;;;;;0.60;0.60;;;5.30;99.90;;;;;;5071176;28;21100;-68
2022/09/22 03:01:39;;;;;;;0.88;0.57;;;5.30;99.90;;;;;;5071151;28;20882;-68
2022/09/22 03:04:06;;;;;;;0.47;0.47;;;5.40;99.90;;;;;;5070857;28;20432;-68
2022/09/22 03:06:37;;;;;;;0.40;0.40;;;5.50;99.90;;;;;;5069561;28;20435;-68
2022/09/22 03:09:04;;;;;;;0.60;0.60;;;5.50;99.90;;;;;;5070982;28;20434;-68
2022/09/22 03:11:30;;;;;;;1.83;0.50;;;5.40;99.90;;;;;;5070772;28;20423;-68
2022/09/22 03:13:57;;;;;;;0.63;0.63;;;5.40;99.90;;;;;;5069136;28;20431;-68
2022/09/22 03:16:27;;;;;;;0.43;0.43;;;5.30;99.90;;;;;;5070793;28;20441;-68
2022/09/22 03:18:57;;;;;;;3.40;0.52;;;5.20;99.90;;;;;;5070913;28;20462;-68
2022/09/22 03:21:24;;;;;;;0.93;0.90;;;5.10;99.90;;;;;;5069963;28;20434;-68
2022/09/22 03:23:52;;;;;;;0.28;0.28;;;5.10;99.90;;;;;;5070046;28;20439;-68
2022/09/22 03:26:22;;;;;;;0.50;0.30;;;5.10;99.90;;;;;;5069786;28;20431;-68
2022/09/22 03:28:48;;;;;;;0.30;0.30;;;5.10;99.90;;;;;;5070771;28;20427;-68
2022/09/22 03:31:15;;;;;;;0.60;0.60;;;5.10;99.90;;;;;;5070610;28;20434;-68
2022/09/22 03:33:44;;;;;;;0.40;0.40;;;5.20;99.90;;;;;;5070121;28;20507;-68
2022/09/22 03:36:18;;;;;;;0.80;0.50;;;5.10;99.90;;;;;;5070307;28;20427;-68
2022/09/22 03:38:44;;;;;;;0.30;0.30;;;5.20;99.90;;;;;;5070548;28;20447;-68
2022/09/22 03:41:11;;;;;;;0.40;0.40;;;5.20;99.90;;;;;;5070308;28;20427;-68
2022/09/22 03:43:41;;;;;;;0.35;0.35;;;5.20;99.90;;;;;;5069471;28;20457;-68
2022/09/22 03:46:08;;;;;;;0.43;0.43;;;5.20;99.90;;;;;;5070354;28;21032;-68
2022/09/22 03:48:35;;;;;;;0.50;0.20;;;5.30;99.90;;;;;;5070291;28;20481;-68
2022/09/22 03:51:01;;;;;;;0.80;0.60;;;5.30;99.90;;;;;;5070198;28;20435;-68
2022/09/22 03:53:28;;;;;;;0.50;0.50;;;5.30;99.90;;;;;;5069444;28;20424;-68
2022/09/22 03:56:24;;;;;;;0.60;0.60;;;5.30;99.90;;;;;;5070355;28;20434;-68
2022/09/22 03:58:59;;;;;;;0.38;0.38;;;5.30;99.90;;;;;;4988143;28;20525;-68
2022/09/22 04:01:28;;;;;;;0.30;0.30;;;5.30;99.90;;;;;;4988084;28;20441;-68
2022/09/22 04:03:55;;;;;;;0.20;0.20;;;5.20;99.90;;;;;;4987858;28;20441;-68
2022/09/22 04:06:22;;;;;;;0.40;0.40;;;5.30;99.90;;;;;;4988420;28;20503;-68
2022/09/22 04:08:49;;;;;;;0.40;0.40;;;5.20;99.90;;;;;;4987973;28;20434;-68
2022/09/22 04:11:15;;;;;;;0.50;0.50;;;5.20;99.90;;;;;;4988038;28;20434;-68
2022/09/22 04:13:45;;;;;;;0.38;0.38;;;5.10;99.90;;;;;;4987616;28;20426;-68
2022/09/22 04:16:14;;;;;;;0.43;0.43;;;5.20;99.90;;;;;;4988207;28;20434;-68
2022/09/22 04:18:40;;;;;;;0.30;0.30;;;5.20;99.90;;;;;;4987882;28;20445;-68
2022/09/22 04:21:08;;;;;;;0.63;0.63;;;5.20;99.90;;;;;;4987945;28;20765;-68
2022/09/22 04:23:35;;;;;;;0.30;0.30;;;5.20;99.90;;;;;;4986956;28;20434;-68
2022/09/22 04:26:04;;;;;;;0.30;0.30;;;5.20;99.90;;;;;;4968612;28;20464;-68
2022/09/22 04:28:31;;;;;;;0.43;0.43;;;5.20;99.90;;;;;;4985613;28;20960;-68
2022/09/22 04:30:58;;;;;;;0.30;0.30;;;5.20;99.90;;;;;;4988012;28;20426;-68
2022/09/22 04:33:25;;;;;;;0.50;0.20;;;5.10;99.90;;;;;;4987639;28;21103;-68
2022/09/22 04:35:52;;;;;;;0.47;0.47;;;5.20;99.90;;;;;;5031870;28;20899;-68
2022/09/22 04:38:21;;;;;;;0.80;0.80;;;5.10;99.90;;;;;;5049700;28;20433;-69
2022/09/22 04:40:48;;;;;;;0.30;0.30;;;5.10;99.90;;;;;;5049566;28;20823;-68
2022/09/22 04:43:15;;;;;;;0.55;0.55;;;5.20;99.90;;;;;;5047843;28;21023;-68
2022/09/22 04:45:44;;;;;;;0.60;0.60;;;5.20;99.90;;;;;;5049808;28;20432;-68
2022/09/22 04:48:11;;;;;;;0.25;0.25;;;5.10;99.90;;;;;;5049763;28;20430;-68
2022/09/22 04:50:38;;;;;;;0.50;0.50;;;5.20;99.90;;;;;;5049712;28;20429;-69
2022/09/22 04:53:05;;;;;;;0.70;0.40;;;5.20;99.90;;;;;;5049197;28;20865;-69
2022/09/22 04:55:32;;;;;;;0.50;0.40;;;5.20;99.90;;;;;;5049555;28;20496;-69
2022/09/22 04:57:59;;;;;;;0.60;0.50;;;5.20;99.90;;;;;;5049804;28;20456;-68
2022/09/22 05:00:28;;;;;;;0.40;0.40;;;5.20;99.90;;;;;;5049487;28;20445;-69
2022/09/22 05:02:55;;;;;;;0.60;0.60;;;5.20;99.90;;;;;;5049101;28;20433;-68
2022/09/22 05:05:23;;;;;;;0.73;0.65;;;5.30;99.90;;;;;;5050263;28;20944;-69
2022/09/22 05:07:54;;;;;;;0.22;0.22;;;5.30;99.90;;;;;;5053282;28;20429;-69
2022/09/22 05:10:26;;;;;;;0.40;0.20;;;5.30;99.90;;;;;;5069971;28;20415;-68
2022/09/22 05:12:52;;;;;;;0.30;0.20;;;5.30;99.90;;;;;;5073269;28;20522;-69
2022/09/22 05:15:21;;;;;;;0.25;0.25;;;5.20;99.90;;;;;;5073016;28;20428;-69
2022/09/22 05:17:50;;;;;;;0.50;0.50;;;5.30;99.90;;;;;;5073043;28;20502;-69
2022/09/22 05:20:19;;;;;;;0.38;0.38;;;5.20;99.90;;;;;;5073133;28;20419;-69
2022/09/22 05:22:49;;;;;;;0.35;0.35;;;5.20;99.90;;;;;;5072843;28;20956;-69
2022/09/22 05:25:18;;;;;;;0.30;0.30;;;5.30;99.90;;;;;;5072838;28;20427;-69
2022/09/22 05:27:55;;;;;;;0.40;0.40;;;5.30;99.90;;;;;;5073179;28;20454;-69
2022/09/22 05:30:24;;;;;;;0.85;0.55;;;5.40;99.90;;;;;;5072867;28;20419;-69
2022/09/22 05:32:53;;;;;;;0.43;0.43;;;5.40;99.90;;;;;;5070331;28;20472;-69
2022/09/22 05:35:22;;;;;;;0.53;0.53;;;5.40;99.90;;;;;;5072485;28;20465;-69
2022/09/22 05:37:51;;;;;;;0.60;0.52;;;5.40;99.90;;;;;;5071644;28;20801;-69
2022/09/22 05:40:18;;;;;;;1.10;0.40;;;5.50;99.90;;;;;;5072986;28;20446;-69
2022/09/22 05:42:50;;;;;;;0.60;0.40;;;5.40;99.90;;;;;;5072734;28;20485;-69
2022/09/22 05:45:18;;;;;;;0.43;0.43;;;5.50;99.90;;;;;;5072318;28;20511;-69
2022/09/22 05:47:45;;;;;;;0.20;0.20;;;5.50;99.90;;;;;;5072493;28;21334;-69
2022/09/22 05:50:14;;;;;;;0.90;0.63;;;5.50;99.90;;;;;;5071290;28;20502;-69
2022/09/22 05:52:41;;;;;;;0.40;0.40;;;5.60;99.90;;;;;;5072570;28;20952;-69
2022/09/22 05:55:15;;;;;;;0.45;0.35;;;5.70;99.90;;;;;;5072078;28;20431;-69
2022/09/22 05:57:42;;;;;;;0.80;0.80;;;5.80;99.90;;;;;;5072200;28;20439;-69
2022/09/22 06:00:10;;;;;;;0.70;0.70;;;5.90;99.90;;;;;;5071029;28;20434;-69
2022/09/22 06:02:42;;;;;;;0.60;0.60;;;5.90;99.90;;;;;;5072344;28;20440;-69
2022/09/22 06:05:11;;;;;;;0.25;0.25;;;6.00;99.90;;;;;;5071994;28;20555;-69
2022/09/22 06:07:43;;;;;;;0.50;0.50;;;6.10;99.90;;;;;;5072436;28;20458;-69
2022/09/22 06:10:15;;;;;;;0.60;0.38;;;6.20;99.90;;;;;;5072221;28;20427;-69
2022/09/22 06:12:42;;;;;;;0.55;0.55;;;6.40;99.90;;;;;;5070856;28;20412;-69
2022/09/22 06:15:12;;;;;;;0.43;0.43;;;6.50;99.90;;;;;;5070635;28;20431;-69
2022/09/22 06:17:38;;;;;;;6.05;0.85;;;6.90;99.90;;;;;;5071888;28;20424;-69
2022/09/22 06:20:07;;;;;;;0.40;0.40;;;7.40;99.90;;;;;;5072313;28;20427;-69
2022/09/22 06:22:36;;;;;;;0.40;0.40;;;8.00;99.90;;;;;;5072095;28;20461;-69
2022/09/22 06:25:03;;;;;;;0.40;0.33;;;8.70;99.90;;;;;;5071347;28;20431;-69
2022/09/22 06:27:29;;;;;;;0.63;0.63;;;9.10;99.90;;;;;;5072133;28;20427;-69
2022/09/22 06:29:57;;;;;;;0.50;0.50;;;9.60;99.90;;;;;;5072099;28;20447;-69
2022/09/22 06:32:24;;;;;;;0.70;0.70;;;10.00;99.90;;;;;;5072043;28;20427;-70
2022/09/22 06:34:50;;;;;;;0.43;0.43;;;10.50;99.90;;;;;;5071173;28;20435;-70
2022/09/22 06:37:19;;;;;;;0.50;0.50;;;10.80;99.90;;;;;;5070635;28;20438;-68
2022/09/22 06:39:45;;;;;;;0.60;0.60;;;11.20;99.90;;;;;;5071699;28;20427;-69
2022/09/22 06:42:16;;;;;;;0.60;0.60;;;11.60;99.90;;;;;;5053832;28;20820;-68
2022/09/22 06:44:43;;;;;;;0.50;0.50;;;11.80;99.90;;;;;;5071224;28;20439;-68
2022/09/22 06:47:11;;;;;;;0.70;0.70;;;11.90;99.90;;;;;;5071671;28;20454;-68
2022/09/22 06:49:38;;;;;;;0.45;0.45;;;12.00;99.90;;;;;;5070977;28;20493;-69
2022/09/22 06:52:09;;;;;;;0.40;0.40;;;12.30;99.90;;;;;;5070076;28;20427;-69
2022/09/22 06:54:38;;;;;;;0.40;0.40;;;12.60;99.90;;;;;;5069795;28;20423;-70
2022/09/22 06:57:09;;;;;;;0.52;0.52;;;12.60;99.90;;;;;;5071053;28;20427;-70
2022/09/22 06:59:40;;;;;;;0.45;0.45;;;12.70;99.90;;;;;;5069905;28;20793;-70
2022/09/22 07:02:08;;;;;;;0.52;0.52;;;12.80;99.90;;;;;;5071235;28;20510;-70
2022/09/22 07:04:37;;;;;;;0.60;0.60;;;12.90;99.90;;;;;;5069647;28;20446;-70
2022/09/22 07:07:07;;;;;;;0.60;0.60;;;13.00;99.90;;;;;;5068009;28;20454;-70
2022/09/22 07:09:37;;;;;;;0.32;0.32;;;13.10;99.90;;;;;;5070559;28;20771;-69
2022/09/22 07:12:05;;;;;;;0.57;0.57;;;13.30;99.90;;;;;;5070972;28;21120;-69
2022/09/22 07:14:31;;;;;;;1.00;0.80;;;13.40;99.90;;;;;;5070236;28;20523;-69
2022/09/22 07:16:58;;;;;;;1.20;0.70;;;13.50;99.90;;;;;;5069628;28;20420;-68
2022/09/22 07:19:25;;;;;;;0.40;0.40;;;13.50;99.90;;;;;;5070720;28;20503;-68
2022/09/22 07:21:52;;;;;;;0.60;0.60;;;;;;;;;;5070780;28;20435;-68
2022/09/22 07:24:22;;;;;;;0.40;0.40;;;;;;;;;;5069640;28;21448;-69
2022/09/22 07:26:50;;;;;;;0.50;0.50;;;;;;;;;;5070801;28;20427;-69
2022/09/22 07:29:17;;;;;;;0.70;0.70;;;;;;;;;;5069944;28;20471;-69
2022/09/22 07:31:44;;;;;;;0.40;0.40;;;;;;;;;;5070636;28;20423;-69
2022/09/22 07:34:11;;;;;;;0.60;0.60;;;13.70;99.90;;;;;;5070640;28;20439;-70
2022/09/22 07:36:38;;;;;;;0.30;0.30;;;14.40;99.90;;;;;;5070639;28;20427;-68
2022/09/22 07:39:09;;;;;;;0.40;0.40;;;14.60;99.90;;;;;;5070587;28;20458;-69
2022/09/22 07:41:42;;;;;;;0.60;0.60;;;14.50;99.90;;;;;;5069579;28;20427;-69
2022/09/22 07:47:02;;;;;;;0.50;0.50;;;14.90;99.90;;;;;;5070189;28;20901;-69
2022/09/22 07:49:29;;;;;;;0.47;0.35;;;15.10;99.90;;;;;;5069150;28;20514;-69
2022/09/22 07:51:56;;;;;;;0.43;0.43;;;15.30;99.90;;;;;;5070320;28;20415;-69
2022/09/22 07:54:26;;;;;;;0.40;0.40;;;15.50;99.90;;;;;;5069966;28;20569;-69
2022/09/22 07:57:01;;;;;;;0.50;0.50;;;;;;;;;;5069114;28;20908;-69
2022/09/22 07:59:28;;;;;;;0.40;0.40;;;;;;;;;;5070457;28;20539;-69
2022/09/22 08:01:55;;;;;;;0.50;0.50;;;;;;;;;;5068866;28;20430;-69
2022/09/22 08:04:25;;;;;;;0.40;0.40;;;;;;;;;;5069982;28;20411;-69
2022/09/22 08:06:54;;;;;;;0.70;0.50;;;;;;;;;;5070218;28;20426;-69
2022/09/22 08:09:23;;;;;;;0.50;0.50;;;;;;;;;;5068786;28;20458;-69
2022/09/22 08:11:51;;;;;;;0.30;0.30;;;;;;;;;;5070383;28;20423;-68
2022/09/22 08:14:21;;;;;;;1.20;0.60;;;;;;;;;;5069658;28;20428;-69
2022/09/22 08:16:50;;;;;;;0.40;0.40;;;;;;;;;;5070144;28;20789;-70
2022/09/22 08:19:17;;;;;;;0.20;0.20;;;;;;;;;;5070044;28;20431;-69
2022/09/22 08:21:46;;;;;;;1.80;0.50;;;;;;;;;;5070101;28;20488;-70
2022/09/22 08:24:20;;;;;;;0.60;0.60;;;;;;;;;;5069621;28;21023;-69
2022/09/22 08:26:49;;;;;;;0.40;0.40;;;;;;;;;;5069310;28;20512;-69
2022/09/22 08:29:16;;;;;;;2.10;0.40;;;;;;;;;;5069930;28;20642;-69
2022/09/22 08:31:47;;;;;;;0.98;0.47;;;;;;;;;;5069984;28;20449;-69
2022/09/22 08:34:16;;;;;;;0.50;0.50;;;;;;;;;;5069758;28;20450;-70
2022/09/22 08:36:45;;;;;;;0.20;0.20;;;;;;;;;;5070211;28;20950;-69
2022/09/22 08:39:12;;;;;;;0.47;0.47;;;;;;;;;;5069452;28;20431;-69
2022/09/22 08:41:48;;;;;;;0.40;0.40;;;;;;;;;;5073177;28;20442;-69
2022/09/22 08:44:21;;;;;;;0.40;0.40;;;;;;;;;;5073640;28;20798;-70
2022/09/22 08:46:49;;;;;;;3.95;0.70;;;;;;;;;;5073981;28;20546;-70
2022/09/22 08:52:29;;;;;;;2.50;0.50;;;;;;;;;;5073877;28;20480;-69
2022/09/22 08:54:58;;;;;;;0.82;0.60;;;;;;;;;;5073239;28;20438;-70
2022/09/22 08:57:44;;;;;;;0.40;0.40;;;;;;;;;;5073677;28;20867;-69
2022/09/22 09:00:13;;;;;;;0.60;0.60;;;;;;;;;;5073554;28;20881;-69
2022/09/22 09:02:45;;;;;;;0.30;0.30;;;;;;;;;;5072309;28;20819;-69
2022/09/22 09:05:39;;;;;;;0.40;0.40;;;15.80;99.90;;;;;;5053296;28;20907;-69
2022/09/22 09:08:28;;;;;;;0.60;0.60;;;17.70;99.90;;;;;;5053769;28;20429;-69
2022/09/22 09:11:13;;;;;;;0.82;0.82;;;17.90;99.90;;;;;;5052433;28;20930;-69
2022/09/22 09:14:04;;;;;;;0.47;0.47;;;17.80;99.90;;;;;;5052927;28;20456;-69
2022/09/22 09:16:46;;;;;;;0.30;0.30;;;18.10;99.90;;;;;;5053618;28;20425;-69
2022/09/22 09:19:33;;;;;;;0.30;0.30;;;18.30;99.90;;;;;;5053465;28;20444;-67
2022/09/22 09:22:17;;;;;;;0.30;0.30;;;18.50;99.90;;;;;;5053065;28;20432;-67
2022/09/22 09:25:15;;;;;;;2.95;1.88;;;18.80;99.90;;;;;;5052838;28;20428;-67
2022/09/22 09:27:57;;;;;;;0.83;0.83;;;18.20;99.90;;;;;;5052337;28;20466;-68
2022/09/22 09:30:24;;;;;;;0.30;0.30;;;18.20;99.90;;;;;;5053045;28;20433;-69
2022/09/22 09:32:59;;;;;;;0.60;0.60;;;18.50;99.90;;;;;;5052647;28;20433;-69
2022/09/22 09:35:31;;;;;;;2.47;1.77;;;18.50;99.90;;;;;;5053818;28;20456;-69
2022/09/22 09:38:02;;;;;;;0.40;0.40;;;18.60;99.90;;;;;;5051415;28;20883;-68
2022/09/22 09:40:28;;;;;;;0.50;0.50;;;19.00;99.90;;;;;;5052935;28;20437;-69
2022/09/22 09:43:02;;;;;;;0.30;0.30;;;19.20;99.90;;;;;;5052750;28;20459;-68
2022/09/22 09:45:35;;;;;;;0.50;0.30;;;19.60;99.90;;;;;;5051749;28;20483;-68
2022/09/22 09:48:01;;;;;;;0.40;0.40;;;19.70;99.90;;;;;;5052633;28;20433;-68
2022/09/22 09:50:30;;;;;;;0.53;0.53;;;19.70;99.90;;;;;;5052093;28;20447;-69
2022/09/22 09:52:58;;;;;;;0.30;0.30;;;20.00;99.90;;;;;;5052018;28;20479;-68
2022/09/22 09:55:26;;;;;;;0.40;0.40;;;19.90;99.90;;;;;;5052518;28;20796;-69
2022/09/22 10:00:29;;;;;;;0.40;0.30;;;19.50;99.90;;;;;;5052760;28;20433;-67
2022/09/22 10:00:59;;;;;;;0.40;0.40;;;19.90;99.90;;;;;;5052178;28;20838;-68
2022/09/22 10:03:32;;;;;;;0.30;0.30;;;19.60;99.90;;;;;;5069571;28;20427;-68
2022/09/22 10:06:05;;;;;;;0.40;0.40;;;20.00;99.90;;;;;;5072192;28;20975;-68
2022/09/22 10:08:41;;;;;;;0.38;0.38;;;20.00;99.90;;;;;;5072240;28;20478;-68
2022/09/22 10:11:14;;;;;;;0.70;0.60;;;20.50;99.90;;;;;;5072487;28;20493;-69
2022/09/22 10:13:42;;;;;;;0.43;0.43;;;20.60;99.90;;;;;;5071993;28;20465;-69
2022/09/22 10:16:30;;;;;;;0.30;0.30;;;21.00;99.90;;;;;;5072007;28;20431;-69
2022/09/22 10:19:20;;;;;;;0.50;0.50;;;21.30;99.90;;;;;;5072363;28;20445;-69
2022/09/22 10:21:50;;;;;;;0.30;0.30;;;21.50;99.90;;;;;;5072094;28;20431;-69
2022/09/22 10:24:31;;;;;;;0.40;0.40;;;21.70;99.90;;;;;;5071347;28;20442;-68
2022/09/22 10:27:02;;;;;;;0.30;0.30;;;21.60;99.90;;;;;;5071804;28;20462;-69
2022/09/22 10:29:33;;;;;;;0.90;0.40;;;21.90;99.90;;;;;;5067244;28;20432;-68
2022/09/22 10:32:02;;;;;;;0.40;0.40;;;22.00;99.90;;;;;;5071769;28;20431;-68
2022/09/22 10:34:40;;;;;;;0.40;0.40;;;21.70;99.90;;;;;;5071541;28;20506;-68
2022/09/22 10:37:10;;;;;;;1.73;1.38;;;21.80;99.90;;;;;;5071403;28;20436;-67
2022/09/22 10:39:50;;;;;;;0.25;0.25;;;21.10;99.90;;;;;;5071721;28;20427;-68
2022/09/22 10:42:33;;;;;;;0.47;0.47;;;20.50;99.90;;;;;;5071751;28;20431;-67
2022/09/22 10:45:04;;;;;;;0.30;0.30;;;20.60;99.90;;;;;;5071204;28;20759;-68
2022/09/22 10:47:32;;;;;;;0.65;0.52;;;20.50;99.90;;;;;;5071114;28;20898;-68
2022/09/22 10:49:59;;;;;;;0.50;0.50;;;20.60;99.90;;;;;;5071855;28;20428;-68
2022/09/22 10:52:37;;;;;;;0.40;0.40;;;21.20;99.90;;;;;;5071526;28;20901;-69
2022/09/22 10:55:13;;;;;;;0.32;0.32;;;21.70;99.90;;;;;;5071098;28;20431;-68
2022/09/22 10:57:57;;;;;;;0.38;0.32;;;22.00;99.90;;;;;;5071136;28;20419;-68
2022/09/22 11:00:26;;;;;;;0.68;0.68;;;21.40;99.90;;;;;;5069705;28;20959;-68
2022/09/22 11:03:30;;;;;;;0.40;0.32;;;21.20;99.90;;;;;;5068786;28;20497;-69
2022/09/22 11:12:46;;;;;;;0.50;0.50;;;20.20;99.90;;;;;;5070789;28;20518;-67
2022/09/22 11:15:35;;;;;;;1.90;1.10;;;20.20;99.90;;;;;;5070776;28;20431;-68
2022/09/22 11:18:14;;;;;;;0.65;0.55;;;20.70;99.90;;;;;;5070796;28;20427;-68
2022/09/22 11:20:57;;;;;;;0.40;0.40;;;21.10;99.90;;;;;;5070946;28;20423;-68
2022/09/22 11:23:36;;;;;;;0.40;0.40;;;21.10;99.90;;;;;;5070160;28;20431;-69
2022/09/22 11:26:45;;;;;;;0.90;0.80;;;21.40;99.90;;;;;;5069228;28;20850;-68
2022/09/22 11:29:33;;;;;;;0.45;0.45;;;21.80;99.90;;;;;;5070614;28;20435;-68
2022/09/22 11:32:24;;;;;;;0.40;0.40;;;22.80;99.90;;;;;;5070522;28;20435;-67
2022/09/22 11:35:06;;;;;;;0.70;0.70;;;22.40;99.90;;;;;;5069969;28;20434;-66
2022/09/22 11:37:51;;;;;;;0.50;0.50;;;21.70;99.90;;;;;;5070148;28;20438;-68
2022/09/22 11:40:47;;;;;;;1.33;1.23;;;22.50;99.90;;;;;;5070625;28;20434;-67
2022/09/22 11:43:32;;;;;;;1.05;0.52;;;22.40;99.60;;;;;;5068740;28;21032;-67
2022/09/22 11:46:20;;;;;;;1.00;0.73;;;21.50;99.30;;;;;;5070238;28;20432;-67
2022/09/22 11:49:06;;;;;;;0.35;0.32;;;21.40;99.60;;;;;;5069192;28;20484;-67
2022/09/22 11:51:51;;;;;;;0.60;0.60;;;21.30;99.70;;;;;;5070274;28;20427;-68
2022/09/22 11:54:29;;;;;;;0.30;0.30;;;21.00;99.90;;;;;;5069438;28;20431;-67
2022/09/22 11:57:08;;;;;;;0.40;0.40;;;21.20;99.80;;;;;;5070613;28;20890;-68
2022/09/22 12:00:00;;;;;;;0.43;0.40;;;21.50;99.70;;;;;;5070405;28;20530;-68
2022/09/22 12:02:33;;;;;;;0.30;0.30;;;21.50;99.90;;;;;;5069665;28;20439;-68
2022/09/22 12:05:07;;;;;;;0.50;0.50;;;21.00;99.50;;;;;;5069801;28;20967;-67
2022/09/22 12:07:48;;;;;;;0.47;0.47;;;21.30;99.30;;;;;;5069213;28;20431;-68
2022/09/22 12:10:46;;;;;;;0.20;0.20;;;21.00;98.30;;;;;;5069973;28;20439;-66
2022/09/22 12:13:15;;;;;;;0.23;0.23;;;21.30;99.00;;;;;;5068632;28;20918;-67
2022/09/22 12:16:05;;;;;;;0.25;0.25;;;21.50;99.00;;;;;;5069683;28;20427;-67
2022/09/22 12:18:57;;;;;;;0.50;0.50;;;21.70;99.10;;;;;;5070033;28;21063;-67
2022/09/22 12:21:56;;;;;;;0.40;0.40;;;20.80;99.20;;;;;;5069851;28;20428;-68
2022/09/22 12:24:23;;;;;;;0.40;0.40;;;21.50;99.90;;;;;;5069288;28;20427;-68
2022/09/22 12:26:50;;;;;;;2.83;1.48;;;22.30;99.50;;;;;;5070112;28;20434;-68
2022/09/22 12:29:28;;;;;;;0.35;0.35;;;21.80;98.70;;;;;;5069731;28;20431;-67
2022/09/22 12:31:58;;;;;;;0.40;0.40;;;21.70;99.00;;;;;;5070169;28;20493;-67
2022/09/22 12:34:28;;;;;;;0.30;0.30;;;21.70;98.70;;;;;;5069435;28;20423;-67
2022/09/22 12:37:24;;;;;;;0.40;0.30;;;22.10;98.30;;;;;;5070196;28;20481;-67
2022/09/22 12:39:54;;;;;;;0.30;0.30;;;22.40;98.00;;;;;;5070045;28;20775;-68
2022/09/22 12:42:29;;;;;;;0.40;0.30;;;22.90;98.40;;;;;;5069910;28;20431;-68
2022/09/22 12:45:07;;;;;;;0.30;0.30;;;23.20;97.80;;;;;;5069559;28;20438;-68
2022/09/22 12:47:38;;;;;;;0.25;0.25;;;22.90;95.30;;;;;;5069725;28;20431;-68
2022/09/22 12:50:26;;;;;;;0.30;0.30;;;22.60;95.30;;;;;;5068543;28;20929;-68
2022/09/22 12:52:53;;;;;;;0.30;0.30;;;22.40;95.50;;;;;;5069382;28;20427;-69
2022/09/22 12:55:41;;;;;;;0.20;0.20;;;21.20;95.50;;;;;;5069756;28;20424;-68
2022/09/22 12:58:28;;;;;;;0.28;0.28;;;21.30;95.90;;;;;;5069600;28;20971;-69
2022/09/22 13:01:26;;;;;;;0.20;0.20;;;21.10;96.50;;;;;;4987341;28;20442;-68
2022/09/22 13:04:12;;;;;;;0.30;0.30;;;20.90;94.60;;;;;;4987161;28;20441;-68
2022/09/22 13:06:39;;;;;;;0.20;0.20;;;21.60;95.10;;;;;;4987681;28;20493;-68
2022/09/22 13:09:18;;;;;;;0.40;0.40;;;21.90;94.50;;;;;;4977658;28;20438;-67
2022/09/22 13:12:10;;;;;;;0.25;0.25;;;21.70;93.50;;;;;;4987538;28;20514;-68
2022/09/22 13:15:10;;;;;;;0.30;0.30;;;22.00;93.90;;;;;;4971166;28;20426;-68
2022/09/22 13:17:43;;;;;;;0.20;0.20;;;22.20;94.10;;;;;;4987366;28;20510;-68
2022/09/22 13:20:23;;;;;;;0.68;0.68;;;21.90;94.90;;;;;;4987428;28;20975;-67
2022/09/22 13:23:06;;;;;;;0.22;0.22;;;21.80;95.40;;;;;;4971231;28;20492;-68
2022/09/22 13:25:32;;;;;;;0.20;0.20;;;21.80;94.40;;;;;;4986734;28;20430;-69
2022/09/22 13:28:08;;;;;;;0.32;0.32;;;21.60;93.80;;;;;;4990670;28;20430;-67
2022/09/22 13:30:36;;;;;;;0.30;0.30;;;22.20;94.90;;;;;;4991219;28;20433;-67
2022/09/22 13:33:26;;;;;;;0.30;0.30;;;22.80;94.10;;;;;;4990872;28;20489;-67
2022/09/22 13:36:00;;;;;;;0.30;0.30;;;22.50;93.80;;;;;;4991025;28;21010;-67
2022/09/22 13:38:28;;;;;;;0.30;0.30;;;22.30;93.70;;;;;;5042770;28;20423;-70
2022/09/22 13:40:58;;;;;;;0.30;0.30;;;22.80;93.30;;;;;;5072704;28;20557;-69
2022/09/22 13:43:33;;;;;;;0.20;0.20;;;22.30;93.40;;;;;;5072164;28;20435;-69
2022/09/22 13:46:01;;;;;;;0.20;0.20;;;22.50;93.60;;;;;;5072708;28;20434;-69
2022/09/22 13:48:35;;;;;;;0.40;0.30;;;21.90;93.90;;;;;;5071376;28;20429;-67
2022/09/22 13:51:08;;;;;;;0.20;0.20;;;22.80;93.80;;;;;;5072303;28;20473;-68
2022/09/22 13:53:36;;;;;;;0.20;0.20;;;22.50;93.30;;;;;;5072207;28;20453;-68